Terminal Aerodrome Forecast
Issued by NWS

Home | Current Version | Previous Version | Graphics & Text | Print | Product List | Glossary On
Versions: 1 2 3 4 5 6 7 8 9 10 11 12 13 14 15 16 17
981
FTUS43 KABR 161631 AAA
TAFATY
TAF AMD
KATY 161631Z 1617/1712 20013KT P6SM SKC
     FM162300 22008KT P6SM SKC
     FM170400 25004KT P6SM SKC=

USA.gov is the U.S. government's official web portal to all federal, state and local government web resources and services.